createdAt,value
2023-05-21T00:00:51.454Z,14.70
2023-05-21T00:01:51.462Z,11.90
2023-05-21T00:02:51.539Z,16.10
2023-05-21T00:03:51.664Z,15.90
2023-05-21T00:04:51.440Z,13.30
2023-05-21T00:05:51.424Z,16.60
2023-05-21T00:06:51.372Z,19.30
2023-05-21T00:07:51.357Z,16.00
2023-05-21T00:08:51.371Z,12.90
2023-05-21T00:09:51.329Z,15.40
2023-05-21T00:10:51.311Z,16.20
2023-05-21T00:11:51.300Z,15.70
2023-05-21T00:12:51.294Z,16.10
2023-05-21T00:13:51.348Z,15.70
2023-05-21T00:14:51.272Z,14.70
2023-05-21T00:15:51.248Z,16.20
2023-05-21T00:16:51.305Z,13.00
2023-05-21T00:17:51.272Z,13.40
2023-05-21T00:18:51.263Z,17.50
2023-05-21T00:19:51.291Z,17.10
2023-05-21T00:20:51.182Z,15.70
2023-05-21T00:21:51.159Z,18.60
2023-05-21T00:22:51.158Z,13.80
2023-05-21T00:23:51.144Z,13.60
2023-05-21T00:24:51.214Z,14.70
2023-05-21T00:25:51.120Z,18.10
2023-05-21T00:26:51.100Z,13.20
2023-05-21T00:27:51.140Z,14.50
2023-05-21T00:28:51.071Z,12.70
2023-05-21T00:29:51.063Z,14.80
2023-05-21T00:30:51.122Z,12.70
2023-05-21T00:31:51.099Z,16.60
2023-05-21T00:32:51.041Z,14.60
2023-05-21T00:33:51.004Z,13.60
2023-05-21T00:34:51.043Z,14.70
2023-05-21T00:35:51.004Z,12.80
2023-05-21T00:36:50.981Z,14.20
2023-05-21T00:37:50.976Z,13.90
2023-05-21T00:38:50.968Z,13.40
2023-05-21T00:39:50.931Z,14.00
2023-05-21T00:40:50.959Z,13.00
2023-05-21T00:41:50.897Z,9.60
2023-05-21T00:42:50.896Z,11.60
2023-05-21T00:43:50.874Z,11.80
2023-05-21T00:44:50.876Z,11.90
2023-05-21T00:45:50.920Z,11.60
2023-05-21T00:46:50.886Z,9.90
2023-05-21T00:47:50.893Z,10.40
2023-05-21T00:48:50.819Z,14.90
2023-05-21T00:49:50.818Z,10.90
2023-05-21T00:50:50.818Z,14.70
2023-05-21T00:51:50.780Z,14.90
2023-05-21T00:52:50.766Z,11.20
2023-05-21T00:53:50.742Z,11.70
2023-05-21T00:54:50.727Z,11.80
2023-05-21T00:55:50.724Z,9.90
2023-05-21T00:56:50.740Z,10.90
2023-05-21T00:57:50.747Z,13.20
2023-05-21T00:58:50.695Z,9.30
2023-05-21T00:59:50.667Z,10.70
2023-05-21T01:00:50.709Z,12.40
2023-05-21T01:01:50.688Z,11.60
2023-05-21T01:02:50.800Z,13.60
2023-05-21T01:03:50.609Z,14.10
2023-05-21T01:04:50.619Z,15.50
2023-05-21T01:05:50.579Z,9.50
2023-05-21T01:06:50.587Z,11.00
2023-05-21T01:07:50.631Z,12.10
2023-05-21T01:08:50.545Z,12.20
2023-05-21T01:09:50.532Z,9.80
2023-05-21T01:10:50.509Z,9.10
2023-05-21T01:11:50.527Z,10.10
2023-05-21T01:12:50.498Z,16.80
2023-05-21T01:13:50.537Z,10.70
2023-05-21T01:14:50.458Z,9.80
2023-05-21T01:15:50.455Z,14.00
2023-05-21T01:16:50.493Z,9.10
2023-05-21T01:17:50.549Z,10.20
2023-05-21T01:18:50.480Z,12.40
2023-05-21T01:19:50.486Z,13.30
2023-05-21T01:20:50.377Z,12.10
2023-05-21T01:21:50.371Z,12.40
2023-05-21T01:22:50.363Z,14.40
2023-05-21T01:23:50.363Z,10.00
2023-05-21T01:24:50.384Z,9.70
2023-05-21T01:25:50.311Z,12.90
2023-05-21T01:26:50.307Z,10.90
2023-05-21T01:27:50.298Z,17.80
2023-05-21T01:28:50.279Z,9.10
2023-05-21T01:29:50.321Z,11.40
2023-05-21T01:30:50.263Z,13.90
2023-05-21T01:31:50.242Z,9.30
2023-05-21T01:32:50.430Z,11.10
2023-05-21T01:33:50.263Z,9.70
2023-05-21T01:34:50.208Z,11.00
2023-05-21T01:35:50.236Z,8.90
2023-05-21T01:36:50.217Z,10.10
2023-05-21T01:37:50.183Z,11.00
2023-05-21T01:38:50.136Z,10.50
2023-05-21T01:39:50.129Z,10.20
2023-05-21T01:40:50.173Z,11.50
2023-05-21T01:41:50.108Z,9.20
2023-05-21T01:42:50.125Z,10.00
2023-05-21T01:43:50.093Z,9.30
2023-05-21T01:44:50.065Z,9.20
2023-05-21T01:45:50.057Z,12.30
2023-05-21T01:46:50.191Z,12.40
2023-05-21T01:47:50.096Z,9.90
2023-05-21T01:48:50.022Z,10.00
2023-05-21T01:49:50.004Z,11.70
2023-05-21T01:50:50.006Z,11.00
2023-05-21T01:51:50.006Z,9.80
2023-05-21T01:52:49.976Z,10.50
2023-05-21T01:53:49.968Z,9.60
2023-05-21T01:54:49.944Z,12.00
2023-05-21T01:55:49.926Z,7.90
2023-05-21T01:56:49.919Z,12.20
2023-05-21T01:57:49.926Z,11.00
2023-05-21T01:58:49.899Z,11.30
2023-05-21T01:59:49.877Z,10.00
2023-05-21T02:00:49.888Z,12.30
2023-05-21T02:01:49.898Z,11.20
2023-05-21T02:02:49.954Z,11.20
2023-05-21T02:03:49.907Z,9.60
2023-05-21T02:04:49.799Z,11.70
2023-05-21T02:05:49.813Z,11.70
2023-05-21T02:06:49.777Z,13.10
2023-05-21T02:07:49.814Z,10.00
2023-05-21T02:08:49.756Z,11.00
2023-05-21T02:09:49.747Z,11.80
2023-05-21T02:10:49.745Z,11.40
2023-05-21T02:11:49.710Z,11.10
2023-05-21T02:12:49.707Z,11.00
2023-05-21T02:13:49.701Z,10.90
2023-05-21T02:14:49.672Z,11.10
2023-05-21T02:15:49.730Z,10.50
2023-05-21T02:16:49.675Z,11.70
2023-05-21T02:17:49.678Z,12.70
2023-05-21T02:18:49.623Z,9.00
2023-05-21T02:19:49.610Z,12.90
2023-05-21T02:20:49.627Z,12.50
2023-05-21T02:21:49.583Z,14.00
2023-05-21T02:22:49.573Z,14.10
2023-05-21T02:23:49.564Z,9.60
2023-05-21T02:24:49.548Z,11.10
2023-05-21T02:25:49.565Z,11.90
2023-05-21T02:26:49.581Z,11.40
2023-05-21T02:27:49.500Z,11.40
2023-05-21T02:28:49.489Z,10.50
2023-05-21T02:29:49.486Z,9.00
2023-05-21T02:30:49.522Z,8.70
2023-05-21T02:31:49.440Z,9.20
2023-05-21T02:32:49.533Z,10.20
2023-05-21T02:33:49.480Z,12.30
2023-05-21T02:34:49.417Z,10.90
2023-05-21T02:35:49.400Z,10.00
2023-05-21T02:36:49.384Z,12.00
2023-05-21T02:37:49.382Z,10.40
2023-05-21T02:38:49.492Z,10.60
2023-05-21T02:39:49.344Z,10.60
2023-05-21T02:40:49.342Z,11.50
2023-05-21T02:41:49.319Z,10.30
2023-05-21T02:42:49.303Z,9.50
2023-05-21T02:43:49.289Z,14.80
2023-05-21T02:44:49.311Z,11.70
2023-05-21T02:45:49.277Z,9.70
2023-05-21T02:46:49.287Z,11.00
2023-05-21T02:47:49.312Z,10.10
2023-05-21T02:48:49.270Z,12.40
2023-05-21T02:49:49.215Z,11.30
2023-05-21T02:50:49.204Z,11.80
2023-05-21T02:51:49.188Z,10.20
2023-05-21T02:52:49.176Z,10.50
2023-05-21T02:53:49.179Z,12.90
2023-05-21T02:54:49.145Z,10.00
2023-05-21T02:55:49.132Z,10.80
2023-05-21T02:56:49.150Z,11.10
2023-05-21T02:57:49.122Z,9.90
2023-05-21T02:58:49.109Z,10.20
2023-05-21T02:59:49.096Z,11.90
2023-05-21T03:00:49.061Z,11.90
2023-05-21T03:01:49.125Z,9.60
2023-05-21T03:02:49.133Z,16.30
2023-05-21T03:03:49.089Z,7.60
2023-05-21T03:04:49.028Z,14.00
2023-05-21T03:05:49.020Z,8.20
2023-05-21T03:06:49.011Z,11.20
2023-05-21T03:07:48.975Z,13.00
2023-05-21T03:08:48.964Z,12.90
2023-05-21T03:09:48.988Z,13.70
2023-05-21T03:10:48.941Z,11.90
2023-05-21T03:11:48.969Z,11.80
2023-05-21T03:12:48.915Z,9.20
2023-05-21T03:13:49.038Z,8.70
2023-05-21T03:14:48.872Z,11.90
2023-05-21T03:15:48.878Z,11.10
2023-05-21T03:16:48.900Z,9.70
2023-05-21T03:17:48.901Z,11.90
2023-05-21T03:18:48.839Z,10.50
2023-05-21T03:19:48.811Z,10.50
2023-05-21T03:20:48.805Z,13.60
2023-05-21T03:21:48.799Z,10.20
2023-05-21T03:22:48.815Z,9.70
2023-05-21T03:23:48.759Z,9.80
2023-05-21T03:24:48.753Z,9.90
2023-05-21T03:25:48.738Z,15.80
2023-05-21T03:26:48.722Z,14.90
2023-05-21T03:27:48.714Z,12.10
2023-05-21T03:28:48.745Z,14.30
2023-05-21T03:29:48.693Z,10.30
2023-05-21T03:30:48.682Z,10.30
2023-05-21T03:31:48.682Z,12.60
2023-05-21T03:32:48.674Z,10.10
2023-05-21T03:33:48.648Z,11.10
2023-05-21T03:34:48.815Z,12.70
2023-05-21T03:35:48.622Z,10.00
2023-05-21T03:36:48.590Z,12.00
2023-05-21T03:37:48.581Z,12.70
2023-05-21T03:38:48.576Z,11.70
2023-05-21T03:39:48.631Z,8.50
2023-05-21T03:40:48.540Z,10.80
2023-05-21T03:41:48.533Z,11.30
2023-05-21T03:42:48.534Z,9.10
2023-05-21T03:43:48.498Z,8.80
2023-05-21T03:44:48.529Z,12.40
2023-05-21T03:45:48.512Z,11.00
2023-05-21T03:46:48.469Z,13.20
2023-05-21T03:47:48.475Z,12.40
2023-05-21T03:48:48.433Z,11.90
2023-05-21T03:49:48.433Z,10.00
2023-05-21T03:50:48.424Z,9.50
2023-05-21T03:51:48.391Z,10.20
2023-05-21T03:52:48.383Z,10.00
2023-05-21T03:53:48.364Z,11.70
2023-05-21T03:54:48.383Z,11.40
2023-05-21T03:55:48.362Z,10.40
2023-05-21T03:56:48.369Z,9.60
2023-05-21T03:57:48.315Z,10.60
2023-05-21T03:58:48.314Z,9.20
2023-05-21T03:59:48.296Z,13.80
2023-05-21T04:00:48.328Z,11.90
2023-05-21T04:01:48.295Z,10.00
2023-05-21T04:02:48.358Z,11.70
2023-05-21T04:03:48.434Z,13.50
2023-05-21T04:04:48.294Z,10.90
2023-05-21T04:05:48.213Z,12.10
2023-05-21T04:06:48.248Z,10.50
2023-05-21T04:07:48.196Z,14.50
2023-05-21T04:08:48.211Z,11.20
2023-05-21T04:09:48.198Z,13.00
2023-05-21T04:10:48.143Z,13.20
2023-05-21T04:11:48.164Z,14.50
2023-05-21T04:12:48.175Z,11.70
2023-05-21T04:13:48.185Z,12.10
2023-05-21T04:14:48.097Z,8.40
2023-05-21T04:15:48.109Z,11.60
2023-05-21T04:16:48.112Z,12.40
2023-05-21T04:17:48.147Z,13.50
2023-05-21T04:18:48.082Z,10.60
2023-05-21T04:19:48.055Z,13.50
2023-05-21T04:20:48.054Z,12.50
2023-05-21T04:21:48.008Z,11.10
2023-05-21T04:22:48.016Z,12.00
2023-05-21T04:23:47.979Z,11.90
2023-05-21T04:24:47.976Z,11.40
2023-05-21T04:25:47.955Z,10.30
2023-05-21T04:26:47.942Z,12.00
2023-05-21T04:27:48.257Z,11.90
2023-05-21T04:28:47.913Z,9.30
2023-05-21T04:29:49.516Z,11.50
2023-05-21T04:30:47.908Z,15.90
2023-05-21T04:31:47.953Z,11.50
2023-05-21T04:32:47.869Z,12.80
2023-05-21T04:33:47.844Z,13.70
2023-05-21T04:34:47.876Z,12.30
2023-05-21T04:35:47.814Z,10.90
2023-05-21T04:36:47.800Z,10.30
2023-05-21T04:37:47.983Z,12.20
2023-05-21T04:38:47.792Z,14.30
2023-05-21T04:39:47.763Z,12.90
2023-05-21T04:40:47.756Z,9.80
2023-05-21T04:41:47.752Z,14.10
2023-05-21T04:42:47.855Z,12.00
2023-05-21T04:43:47.722Z,14.80
2023-05-21T04:44:47.696Z,13.70
2023-05-21T04:45:47.683Z,11.20
2023-05-21T04:46:47.744Z,13.30
2023-05-21T04:47:47.736Z,12.40
2023-05-21T04:48:47.642Z,11.50
2023-05-21T04:49:47.628Z,11.30
2023-05-21T04:50:47.634Z,11.10
2023-05-21T04:51:47.631Z,11.40
2023-05-21T04:52:47.596Z,12.90
2023-05-21T04:53:47.613Z,12.30
2023-05-21T04:54:47.563Z,11.20
2023-05-21T04:55:47.559Z,12.70
2023-05-21T04:56:47.524Z,9.90
2023-05-21T04:57:47.527Z,10.70
2023-05-21T04:58:47.536Z,10.50
2023-05-21T04:59:47.506Z,12.50
2023-05-21T05:00:47.584Z,13.70
2023-05-21T05:01:47.478Z,10.90
2023-05-21T05:02:47.530Z,13.90
2023-05-21T05:03:47.512Z,11.20
2023-05-21T05:04:47.442Z,11.10
2023-05-21T05:05:47.466Z,13.50
2023-05-21T05:06:47.423Z,16.10
2023-05-21T05:07:47.392Z,13.50
2023-05-21T05:08:47.462Z,13.30
2023-05-21T05:09:47.376Z,11.10
2023-05-21T05:10:47.363Z,13.50
2023-05-21T05:11:47.351Z,12.40
2023-05-21T05:12:47.331Z,10.80
2023-05-21T05:13:47.377Z,11.60
2023-05-21T05:14:47.301Z,11.40
2023-05-21T05:15:49.626Z,12.80
2023-05-21T05:16:47.338Z,12.20
2023-05-21T05:17:47.295Z,12.70
2023-05-21T05:18:47.325Z,14.00
2023-05-21T05:19:47.241Z,11.70
2023-05-21T05:20:47.258Z,10.50
2023-05-21T05:21:47.226Z,12.50
2023-05-21T05:22:47.213Z,12.30
2023-05-21T05:23:47.189Z,13.80
2023-05-21T05:24:47.218Z,15.00
2023-05-21T05:25:47.146Z,14.90
2023-05-21T05:26:47.156Z,11.80
2023-05-21T05:27:47.138Z,13.90
2023-05-21T05:28:47.123Z,12.70
2023-05-21T05:29:47.101Z,13.30
2023-05-21T05:30:47.174Z,11.30
2023-05-21T05:31:47.091Z,14.00
2023-05-21T05:32:47.141Z,11.00
2023-05-21T05:33:47.067Z,11.00
2023-05-21T05:34:47.039Z,13.90
2023-05-21T05:35:47.048Z,10.30
2023-05-21T05:36:47.044Z,12.40
2023-05-21T05:37:47.019Z,11.90
2023-05-21T05:38:46.984Z,13.40
2023-05-21T05:39:46.970Z,11.00
2023-05-21T05:40:46.955Z,11.00
2023-05-21T05:41:46.947Z,11.70
2023-05-21T05:42:47.125Z,13.10
2023-05-21T05:43:47.875Z,13.70
2023-05-21T05:44:46.967Z,13.60
2023-05-21T05:45:46.910Z,12.80
2023-05-21T05:46:46.936Z,12.00
2023-05-21T05:47:46.960Z,14.60
2023-05-21T05:48:46.877Z,10.90
2023-05-21T05:49:46.841Z,12.90
2023-05-21T05:50:46.859Z,12.30
2023-05-21T05:51:46.827Z,13.00
2023-05-21T05:52:46.803Z,11.40
2023-05-21T05:53:46.777Z,11.60
2023-05-21T05:54:46.772Z,12.50
2023-05-21T05:55:46.781Z,13.80
2023-05-21T05:56:46.752Z,14.20
2023-05-21T05:57:46.736Z,11.70
2023-05-21T05:58:46.721Z,13.80
2023-05-21T05:59:46.863Z,10.80
2023-05-21T06:00:46.715Z,15.00
2023-05-21T06:01:46.697Z,13.70
2023-05-21T06:02:47.449Z,12.20
2023-05-21T06:03:46.820Z,13.80
2023-05-21T06:04:46.642Z,13.70
2023-05-21T06:05:46.708Z,13.00
2023-05-21T06:06:46.615Z,11.40
2023-05-21T06:07:46.601Z,12.40
2023-05-21T06:08:46.732Z,10.70
2023-05-21T06:09:46.569Z,10.80
2023-05-21T06:10:46.617Z,10.30
2023-05-21T06:11:46.554Z,14.40
2023-05-21T06:12:46.529Z,12.40
2023-05-21T06:13:46.561Z,11.20
2023-05-21T06:14:46.511Z,12.90
2023-05-21T06:15:46.563Z,11.80
2023-05-21T06:16:46.500Z,10.20
2023-05-21T06:17:46.533Z,16.70
2023-05-21T06:18:46.495Z,12.30
2023-05-21T06:19:46.476Z,12.90
2023-05-21T06:20:46.419Z,10.60
2023-05-21T06:21:47.154Z,13.90
2023-05-21T06:22:46.402Z,12.90
2023-05-21T06:23:46.442Z,15.40
2023-05-21T06:24:46.575Z,11.70
2023-05-21T06:25:46.354Z,13.70
2023-05-21T06:26:46.351Z,15.00
2023-05-21T06:27:46.329Z,10.50
2023-05-21T06:28:46.339Z,12.60
2023-05-21T06:29:46.315Z,11.90
2023-05-21T06:30:46.358Z,10.00
2023-05-21T06:31:47.086Z,11.80
2023-05-21T06:32:46.341Z,13.10
2023-05-21T06:33:46.384Z,10.30
2023-05-21T06:34:46.254Z,13.60
2023-05-21T06:35:46.240Z,12.70
2023-05-21T06:36:46.237Z,11.10
2023-05-21T06:37:46.219Z,10.50
2023-05-21T06:38:46.185Z,12.90
2023-05-21T06:39:46.166Z,11.70
2023-05-21T06:40:46.164Z,12.40
2023-05-21T06:41:46.190Z,11.40
2023-05-21T06:42:46.139Z,12.70
2023-05-21T06:43:46.123Z,11.90
2023-05-21T06:44:46.138Z,11.80
2023-05-21T06:45:46.144Z,15.10
2023-05-21T06:46:46.337Z,12.00
2023-05-21T06:47:46.102Z,10.70
2023-05-21T06:48:46.062Z,14.30
2023-05-21T06:49:46.048Z,13.50
2023-05-21T06:50:46.069Z,11.50
2023-05-21T06:51:46.059Z,11.80
2023-05-21T06:52:46.001Z,9.50
2023-05-21T06:53:45.987Z,14.60
2023-05-21T06:54:45.979Z,12.00
2023-05-21T06:55:45.961Z,14.20
2023-05-21T06:56:45.979Z,12.70
2023-05-21T06:57:45.939Z,12.60
2023-05-21T06:58:45.918Z,13.40
2023-05-21T06:59:45.921Z,12.70
2023-05-21T07:00:46.687Z,12.70
2023-05-21T07:01:45.927Z,13.10
2023-05-21T07:02:45.998Z,11.10
2023-05-21T07:03:45.923Z,10.90
2023-05-21T07:04:45.871Z,12.80
2023-05-21T07:05:45.827Z,11.40
2023-05-21T07:06:45.820Z,10.20
2023-05-21T07:07:45.856Z,13.00
2023-05-21T07:08:45.798Z,14.90
2023-05-21T07:09:45.776Z,13.40
2023-05-21T07:10:45.753Z,12.40
2023-05-21T07:11:45.795Z,12.50
2023-05-21T07:12:45.769Z,11.00
2023-05-21T07:13:45.759Z,10.90
2023-05-21T07:14:45.750Z,13.40
2023-05-21T07:15:45.709Z,13.20
2023-05-21T07:16:45.848Z,13.00
2023-05-21T07:17:45.711Z,10.90
2023-05-21T07:18:45.673Z,14.30
2023-05-21T07:19:45.678Z,10.80
2023-05-21T07:20:45.672Z,9.90
2023-05-21T07:21:45.619Z,11.80
2023-05-21T07:22:45.622Z,13.80
2023-05-21T07:23:45.598Z,14.10
2023-05-21T07:24:45.600Z,11.30
2023-05-21T07:25:45.583Z,13.10
2023-05-21T07:26:45.614Z,11.40
2023-05-21T07:27:45.563Z,16.20
2023-05-21T07:28:45.530Z,11.10
2023-05-21T07:29:45.546Z,14.50
2023-05-21T07:30:45.545Z,11.70
2023-05-21T07:31:45.516Z,17.10
2023-05-21T07:32:45.532Z,13.00
2023-05-21T07:33:45.464Z,13.10
2023-05-21T07:34:45.453Z,15.30
2023-05-21T07:35:45.467Z,13.20
2023-05-21T07:36:45.429Z,13.40
2023-05-21T07:37:45.526Z,13.40
2023-05-21T07:38:46.232Z,12.00
2023-05-21T07:39:45.387Z,13.70
2023-05-21T07:40:45.371Z,12.70
2023-05-21T07:41:45.383Z,16.30
2023-05-21T07:42:45.384Z,13.40
2023-05-21T07:43:45.403Z,14.00
2023-05-21T07:44:45.385Z,11.80
2023-05-21T07:45:45.306Z,12.50
2023-05-21T07:46:45.324Z,12.20
2023-05-21T07:47:46.079Z,14.10
2023-05-21T07:48:45.283Z,15.00
2023-05-21T07:49:45.327Z,13.70
2023-05-21T07:50:45.266Z,13.40
2023-05-21T07:51:45.255Z,12.90
2023-05-21T07:52:45.312Z,14.10
2023-05-21T07:53:45.270Z,13.50
2023-05-21T07:54:45.224Z,13.80
2023-05-21T07:55:45.180Z,13.40
2023-05-21T07:56:45.180Z,12.00
2023-05-21T07:57:45.954Z,15.10
2023-05-21T07:58:45.145Z,15.40
2023-05-21T07:59:45.353Z,13.50
2023-05-21T08:00:45.239Z,11.90
2023-05-21T08:01:45.115Z,13.50
2023-05-21T08:02:45.162Z,13.60
2023-05-21T08:03:45.309Z,14.40
2023-05-21T08:04:45.125Z,12.10
2023-05-21T08:05:45.074Z,12.70
2023-05-21T08:06:45.056Z,11.90
2023-05-21T08:07:45.033Z,12.90
2023-05-21T08:08:45.020Z,10.40
2023-05-21T08:09:45.023Z,12.60
2023-05-21T08:10:45.023Z,15.10
2023-05-21T08:11:44.981Z,10.50
2023-05-21T08:12:44.978Z,12.40
2023-05-21T08:13:44.969Z,12.50
2023-05-21T08:14:44.963Z,13.40
2023-05-21T08:15:45.061Z,11.20
2023-05-21T08:16:44.965Z,15.40
2023-05-21T08:17:44.934Z,11.30
2023-05-21T08:18:44.924Z,11.60
2023-05-21T08:19:44.907Z,17.20
2023-05-21T08:20:44.846Z,11.30
2023-05-21T08:21:44.894Z,16.80
2023-05-21T08:22:44.820Z,10.30
2023-05-21T08:23:44.822Z,14.70
2023-05-21T08:24:44.796Z,13.40
2023-05-21T08:25:44.776Z,14.00
2023-05-21T08:26:44.811Z,12.70
2023-05-21T08:27:44.762Z,13.30
2023-05-21T08:28:44.755Z,14.50
2023-05-21T08:29:44.739Z,14.40
2023-05-21T08:30:44.736Z,13.40
2023-05-21T08:31:44.802Z,12.40
2023-05-21T08:32:44.742Z,13.40
2023-05-21T08:33:44.685Z,11.60
2023-05-21T08:34:44.665Z,15.50
2023-05-21T08:35:44.651Z,16.50
2023-05-21T08:36:44.630Z,12.80
2023-05-21T08:37:44.653Z,12.80
2023-05-21T08:38:44.611Z,14.60
2023-05-21T08:39:44.591Z,14.80
2023-05-21T08:40:44.599Z,12.00
2023-05-21T08:41:44.567Z,13.50
2023-05-21T08:42:44.591Z,12.00
2023-05-21T08:43:44.575Z,15.30
2023-05-21T08:44:44.556Z,13.20
2023-05-21T08:45:44.609Z,14.90
2023-05-21T08:46:44.500Z,13.00
2023-05-21T08:47:44.601Z,14.30
2023-05-21T08:48:44.474Z,16.30
2023-05-21T08:49:44.481Z,11.70
2023-05-21T08:50:44.443Z,19.80
2023-05-21T08:51:44.455Z,13.20
2023-05-21T08:52:44.437Z,12.90
2023-05-21T08:53:44.402Z,11.20
2023-05-21T08:54:44.401Z,12.60
2023-05-21T08:55:44.390Z,15.70
2023-05-21T08:56:44.358Z,14.30
2023-05-21T08:57:44.343Z,14.40
2023-05-21T08:58:44.377Z,14.20
2023-05-21T08:59:44.352Z,13.30
2023-05-21T09:00:44.295Z,13.50
2023-05-21T09:01:44.328Z,13.90
2023-05-21T09:02:44.365Z,18.90
2023-05-21T09:03:44.329Z,16.60
2023-05-21T09:04:44.274Z,12.40
2023-05-21T09:05:44.238Z,16.40
2023-05-21T09:06:44.266Z,15.90
2023-05-21T09:07:44.244Z,16.10
2023-05-21T09:08:44.194Z,13.70
2023-05-21T09:09:44.220Z,14.10
2023-05-21T09:10:44.180Z,14.20
2023-05-21T09:11:44.193Z,13.70
2023-05-21T09:12:44.152Z,17.40
2023-05-21T09:13:44.138Z,15.30
2023-05-21T09:14:44.134Z,16.80
2023-05-21T09:15:44.102Z,12.50
2023-05-21T09:16:44.125Z,14.30
2023-05-21T09:17:44.360Z,14.20
2023-05-21T09:18:44.108Z,15.50
2023-05-21T09:19:44.066Z,13.70
2023-05-21T09:20:44.064Z,16.90
2023-05-21T09:21:44.033Z,18.90
2023-05-21T09:22:44.045Z,17.90
2023-05-21T09:23:44.046Z,17.70
2023-05-21T09:24:44.027Z,14.90
2023-05-21T09:25:43.988Z,16.20
2023-05-21T09:26:43.991Z,15.60
2023-05-21T09:27:43.952Z,14.80
2023-05-21T09:28:43.931Z,17.70
2023-05-21T09:29:44.000Z,14.70
2023-05-21T09:30:43.916Z,16.50
2023-05-21T09:31:44.029Z,18.60
2023-05-21T09:32:43.931Z,14.10
2023-05-21T09:33:43.904Z,16.60
2023-05-21T09:34:43.862Z,16.20
2023-05-21T09:35:43.865Z,16.00
2023-05-21T09:36:43.909Z,16.20
2023-05-21T09:37:44.077Z,16.20
2023-05-21T09:38:43.830Z,15.90
2023-05-21T09:39:43.789Z,15.50
2023-05-21T09:40:44.769Z,15.80
2023-05-21T09:41:43.791Z,14.10
2023-05-21T09:42:43.762Z,16.30
2023-05-21T09:43:43.742Z,19.60
2023-05-21T09:44:43.810Z,15.50
2023-05-21T09:45:43.720Z,14.70
2023-05-21T09:46:43.799Z,17.40
2023-05-21T09:47:43.750Z,14.90
2023-05-21T09:48:43.952Z,17.70
2023-05-21T09:49:43.670Z,19.10
2023-05-21T09:50:43.646Z,15.30
2023-05-21T09:51:43.628Z,19.10
2023-05-21T09:52:43.648Z,22.20
2023-05-21T09:53:43.610Z,21.30
2023-05-21T09:54:43.602Z,18.70
2023-05-21T09:55:43.639Z,15.40
2023-05-21T09:56:43.621Z,17.40
2023-05-21T09:57:43.597Z,19.90
2023-05-21T09:58:43.537Z,17.00
2023-05-21T09:59:43.530Z,17.60
2023-05-21T10:00:43.517Z,19.20
2023-05-21T10:01:43.539Z,15.20
2023-05-21T10:02:43.554Z,16.60
2023-05-21T10:03:43.580Z,16.90
2023-05-21T10:04:43.609Z,21.70
2023-05-21T10:05:43.463Z,17.70
2023-05-21T10:06:43.451Z,18.50
2023-05-21T10:07:43.449Z,18.50
2023-05-21T10:08:43.493Z,16.70
2023-05-21T10:09:43.407Z,16.70
2023-05-21T10:10:43.394Z,17.40
2023-05-21T10:11:43.379Z,21.80
2023-05-21T10:12:43.408Z,15.90
2023-05-21T10:13:43.354Z,21.30
2023-05-21T10:14:43.342Z,21.80
2023-05-21T10:15:43.338Z,21.60
2023-05-21T10:16:43.347Z,20.00
2023-05-21T10:17:43.398Z,19.40
2023-05-21T10:18:43.341Z,19.50
2023-05-21T10:19:43.277Z,15.20
2023-05-21T10:20:43.272Z,18.00
2023-05-21T10:21:43.251Z,17.20
2023-05-21T10:22:43.250Z,16.40
2023-05-21T10:23:43.248Z,18.50
2023-05-21T10:24:43.218Z,16.40
2023-05-21T10:25:43.221Z,19.20
2023-05-21T10:26:43.192Z,21.40
2023-05-21T10:27:43.194Z,15.60
2023-05-21T10:28:43.163Z,20.60
2023-05-21T10:29:43.165Z,18.00
2023-05-21T10:30:43.127Z,19.10
2023-05-21T10:31:43.166Z,18.20
2023-05-21T10:32:43.345Z,19.50
2023-05-21T10:33:43.108Z,16.10
2023-05-21T10:34:43.104Z,20.70
2023-05-21T10:35:43.060Z,17.80
2023-05-21T10:36:43.060Z,18.20
2023-05-21T10:37:43.116Z,17.20
2023-05-21T10:38:43.045Z,17.00
2023-05-21T10:39:43.008Z,14.40
2023-05-21T10:40:43.018Z,16.90
2023-05-21T10:41:42.981Z,19.10
2023-05-21T10:42:42.964Z,16.60
2023-05-21T10:43:42.983Z,15.40
2023-05-21T10:44:42.947Z,18.00
2023-05-21T10:45:42.985Z,21.80
2023-05-21T10:46:42.914Z,18.60
2023-05-21T10:47:42.968Z,18.40
2023-05-21T10:48:42.903Z,17.40
2023-05-21T10:49:42.870Z,16.60
2023-05-21T10:50:42.905Z,19.30
2023-05-21T10:51:42.855Z,16.90
2023-05-21T10:52:42.876Z,20.70
2023-05-21T10:53:42.826Z,15.60
2023-05-21T10:54:42.821Z,18.40
2023-05-21T10:55:42.795Z,18.00
2023-05-21T10:56:42.804Z,17.60
2023-05-21T10:57:42.765Z,18.60
2023-05-21T10:58:42.777Z,20.00
2023-05-21T10:59:42.771Z,17.90
2023-05-21T11:00:42.772Z,19.10
2023-05-21T11:01:42.872Z,19.40
2023-05-21T11:02:42.860Z,20.70
2023-05-21T11:03:42.854Z,22.70
2023-05-21T11:04:42.679Z,18.30
2023-05-21T11:05:42.689Z,17.80
2023-05-21T11:06:42.657Z,20.50
2023-05-21T11:07:42.662Z,20.30
2023-05-21T11:08:42.664Z,19.70
2023-05-21T11:09:42.657Z,20.20
2023-05-21T11:10:42.604Z,17.80
2023-05-21T11:11:42.586Z,18.80
2023-05-21T11:12:42.571Z,17.80
2023-05-21T11:13:42.561Z,20.60
2023-05-21T11:14:42.566Z,16.90
2023-05-21T11:15:42.537Z,20.30
2023-05-21T11:16:42.554Z,21.40
2023-05-21T11:17:42.557Z,20.50
2023-05-21T11:18:42.667Z,16.50
2023-05-21T11:19:42.597Z,19.10
2023-05-21T11:20:42.474Z,20.20
2023-05-21T11:21:42.449Z,20.80
2023-05-21T11:22:42.436Z,21.80
2023-05-21T11:23:42.489Z,19.70
2023-05-21T11:24:42.425Z,21.60
2023-05-21T11:25:42.398Z,20.60
2023-05-21T11:26:42.402Z,20.10
2023-05-21T11:27:42.423Z,18.20
2023-05-21T11:28:42.362Z,19.00
2023-05-21T11:29:42.399Z,16.40
2023-05-21T11:30:42.546Z,17.50
2023-05-21T11:31:42.428Z,16.60
2023-05-21T11:32:42.357Z,19.50
2023-05-21T11:33:42.300Z,17.10
2023-05-21T11:34:42.303Z,20.10
2023-05-21T11:35:42.307Z,17.40
2023-05-21T11:36:42.281Z,16.10
2023-05-21T11:37:42.247Z,21.70
2023-05-21T11:38:42.229Z,16.90
2023-05-21T11:39:42.226Z,18.90
2023-05-21T11:40:42.207Z,20.50
2023-05-21T11:41:42.260Z,18.20
2023-05-21T11:42:42.225Z,15.20
2023-05-21T11:43:42.180Z,18.80
2023-05-21T11:44:42.178Z,21.80
2023-05-21T11:45:42.145Z,16.90
2023-05-21T11:46:42.148Z,20.10
2023-05-21T11:47:42.171Z,19.30
2023-05-21T11:48:42.131Z,19.00
2023-05-21T11:49:42.092Z,19.30
2023-05-21T11:50:42.081Z,19.00
2023-05-21T11:51:42.058Z,15.80
2023-05-21T11:52:42.057Z,18.10
2023-05-21T11:53:43.533Z,20.70
2023-05-21T11:54:42.062Z,18.10
2023-05-21T11:55:42.028Z,20.10
2023-05-21T11:56:42.041Z,21.90
2023-05-21T11:57:42.041Z,20.80
2023-05-21T11:58:41.968Z,20.20
2023-05-21T11:59:41.992Z,19.40
2023-05-21T12:00:41.966Z,20.00
2023-05-21T12:01:41.935Z,17.10
2023-05-21T12:02:42.040Z,16.50
2023-05-21T12:03:42.051Z,17.80
2023-05-21T12:04:41.914Z,17.90
2023-05-21T12:05:41.897Z,20.60
2023-05-21T12:06:41.872Z,18.70
2023-05-21T12:07:41.850Z,18.90
2023-05-21T12:08:41.856Z,18.70
2023-05-21T12:09:41.884Z,16.00
2023-05-21T12:10:42.176Z,17.70
2023-05-21T12:11:41.822Z,19.20
2023-05-21T12:12:54.035Z,22.60
2023-05-21T12:13:42.818Z,18.50
2023-05-21T12:14:41.756Z,22.50
2023-05-21T12:15:41.763Z,20.60
2023-05-21T12:16:41.799Z,20.30
2023-05-21T12:17:41.767Z,17.40
2023-05-21T12:18:41.713Z,18.90
2023-05-21T12:19:41.714Z,17.60
2023-05-21T12:20:41.771Z,18.50
2023-05-21T12:21:41.708Z,17.10
2023-05-21T12:22:41.675Z,20.00
2023-05-21T12:23:41.677Z,19.40
2023-05-21T12:24:41.628Z,19.20
2023-05-21T12:25:41.602Z,18.60
2023-05-21T12:26:41.644Z,18.90
2023-05-21T12:27:41.601Z,17.30
2023-05-21T12:28:41.580Z,18.90
2023-05-21T12:29:41.571Z,20.20
2023-05-21T12:30:41.555Z,21.70
2023-05-21T12:31:41.605Z,17.20
2023-05-21T12:32:41.603Z,15.90
2023-05-21T12:33:41.520Z,18.70
2023-05-21T12:34:41.515Z,17.60
2023-05-21T12:35:41.586Z,15.50
2023-05-21T12:36:41.470Z,16.40
2023-05-21T12:37:41.488Z,18.90
2023-05-21T12:38:41.458Z,22.40
2023-05-21T12:39:41.448Z,18.50
2023-05-21T12:40:41.593Z,21.30
2023-05-21T12:41:41.449Z,22.40
2023-05-21T12:42:41.427Z,18.30
2023-05-21T12:43:41.385Z,17.60
2023-05-21T12:44:41.387Z,23.20
2023-05-21T12:45:41.466Z,21.00
2023-05-21T12:46:41.461Z,18.60
2023-05-21T12:47:41.403Z,20.20
2023-05-21T12:48:41.332Z,19.80
2023-05-21T12:49:41.304Z,17.70
2023-05-21T12:50:41.309Z,17.70
2023-05-21T12:51:41.275Z,18.50
2023-05-21T12:52:41.309Z,20.30
2023-05-21T12:53:41.254Z,20.00
2023-05-21T12:54:41.249Z,18.70